Aérodrome :
LOGIN :

S'inscrire | Disclaimer

   EN    FR    IT 

 










Légende :    VFR   VFR Marginal   IFR   IFR Intensif   IFR Très Intensif
Visi : 
Plafond : 
>= 8 km
>= 3000ft
5 à 8 km
1000 à 3000 ft
1500m à 5 km
500 à 1000 ft
800 à 1500m
200 à 500 ft
< 800m
< 200 ft
Symboles :   Orages  Brouillard  Fortes neiges  Fortes précipitations  Vent > 20 kt
SIGMETs :   Divers  Orages  Givrage  Turbulence  Onde Orograph.  Cendres Volcan.






- Altitude de l'aérodrome : 326 ft
- Code IATA : LCG


LECO - A Coruna

DERNIER METAR :
  • 210500Z 19006KT 140V210 1500 0800E -RA BCFG BKN040 08/08 Q1018 RERA TEMPO SHRA SCT030TCU

METARs EXPIRÉS :
  • 210430Z VRB02KT 2000 0500E R21/P2000 R03/0600D RA BCFG FEW025CB SCT030 08/08 Q1018 TEMPO SHRA
  • 210419Z 00000KT 4000 0800S BCFG -RA FEW001 FEW025CB SCT030 08/08 Q1018 TEMPO SHRA
  • 210400Z VRB01KT 0400 R21/P2000 R03/0600D BCFG FEW001 FEW025CB 08/08 Q1018 TEMPO TS SHRA
  • 210351Z VRB02KT 1000 R21/1700U R03/0650D BCFG FEW001 FEW025CB 08/08 Q1018 TEMPO TS SHRA
  • 210330Z 17004KT 0100 R21/0400N R03/0450U FG FEW001 FEW025CB 08/08 Q1018 TEMPO TS SHRA
  • 210300Z AUTO 17004KT 0150 0100SW R21/0400N R03/0350N FG VV001 08/08 Q1018
  • 210230Z AUTO 16003KT 0400 0150SW R21/1600D R03/0400N FG VV/// 08/08 Q1018

TAF AMD TAF LECO
Valide du 21 à 04h jusqu'au 22 à 03h UTC


210451Z 2104/2203 VRB05KT 9999 SCT035 TX14/2113Z TN08/2106Z
TEMPO 2104/2115 3000 RA SHRA SCT030TCU
PROB40
TEMPO 2104/2112 3000 SHRA TS BKN025CB
TEMPO 2104/2108 1500 BCFG
TEMPO 2104/2108 0350 BCFG BKN001
TEMPO 2104/2108 0150 BCFG BKN001



MET'MAP, la Météo Aéronautique d'un coup d'oeil ! - Copyright ORBIFLY Décembre 2007 - Disclaimer

ORBIFLY MET'MAP TEAM :

Programmation & Développement : Alexandra Zaïnal
Conception & Développement : Baudouin d'Aumeries
Co-Programmation & Développement : Marc-Olivier Méhu
Soutien technique & logistique : Manuel Goepfert

Contact : metmap@orbifly.com




SOURCES & CREDITS :

   NOAA